Time;durP1;ratioP1;P1;durP2;ratioP2;P2;SDS_P1;SDS_P2;PMS_P1;PMS_P2;Temp;Humidity;BMP_temperature;BMP_pressure;BME280_temperature;BME280_humidity;BME280_pressure;Samples;Min_cycle;Max_cycle;Signal;HPM_P1;HPM_P2
2023/05/11 00:01:51;;;;;;;19.20;11.75;;;;;;;9.15;100.00;92097.97;4954981;29;20077;-76
2023/05/11 00:04:16;;;;;;;17.98;11.65;;;;;;;9.20;100.00;92092.66;4936765;29;20031;-75
2023/05/11 00:06:42;;;;;;;16.13;10.90;;;;;;;9.16;100.00;92094.28;4955583;29;20572;-76
2023/05/11 00:09:08;;;;;;;19.05;11.23;;;;;;;9.14;100.00;92085.97;4955216;29;20038;-76
2023/05/11 00:11:34;;;;;;;17.75;12.43;;;;;;;9.09;100.00;92088.66;4954422;29;20050;-76
2023/05/11 00:14:00;;;;;;;18.65;12.57;;;;;;;9.04;100.00;92084.31;4954534;28;20212;-76
2023/05/11 00:16:26;;;;;;;18.70;12.50;;;;;;;9.03;100.00;92087.19;4954767;29;20046;-76
2023/05/11 00:18:51;;;;;;;22.73;13.70;;;;;;;9.05;100.00;92085.06;4950298;29;20469;-76
2023/05/11 00:21:17;;;;;;;26.65;14.88;;;;;;;9.08;100.00;92085.28;4954845;29;20119;-76
2023/05/11 00:23:43;;;;;;;29.55;15.45;;;;;;;9.11;100.00;92083.94;4955582;28;20031;-76
2023/05/11 00:26:08;;;;;;;29.42;15.80;;;;;;;9.14;100.00;92078.94;4938225;29;20523;-76
2023/05/11 00:28:34;;;;;;;30.15;16.08;;;;;;;9.15;100.00;92075.25;4937005;29;20058;-76
2023/05/11 00:31:00;;;;;;;25.33;15.18;;;;;;;9.21;100.00;92073.34;4937442;29;20043;-76
2023/05/11 00:33:26;;;;;;;28.52;15.80;;;;;;;9.26;100.00;92075.84;4937350;29;20039;-76
2023/05/11 00:35:51;;;;;;;27.35;15.30;;;;;;;9.29;100.00;92064.06;4955120;29;20050;-76
2023/05/11 00:38:17;;;;;;;26.63;14.38;;;;;;;9.29;100.00;92067.44;4954170;29;20031;-76
2023/05/11 00:40:43;;;;;;;24.33;13.43;;;;;;;9.31;100.00;92056.72;4950610;29;20067;-76
2023/05/11 00:43:08;;;;;;;23.70;12.77;;;;;;;9.31;100.00;92057.47;4936103;29;20530;-76
2023/05/11 00:45:35;;;;;;;24.38;13.25;;;;;;;9.30;100.00;92055.94;4938112;29;20044;-76
2023/05/11 00:48:00;;;;;;;24.48;12.73;;;;;;;9.31;100.00;92046.25;4953692;29;20023;-76
2023/05/11 00:50:26;;;;;;;28.33;13.98;;;;;;;9.31;100.00;92043.66;4937091;29;20046;-76
2023/05/11 00:52:53;;;;;;;25.33;13.10;;;;;;;9.30;100.00;92040.28;4950214;28;20536;-76
2023/05/11 00:55:20;;;;;;;21.73;12.93;;;;;;;9.28;100.00;92037.16;4954488;29;20031;-76
2023/05/11 00:57:47;;;;;;;24.77;13.63;;;;;;;9.27;100.00;92046.06;4937001;29;20118;-76
2023/05/11 01:00:13;;;;;;;21.02;12.00;;;;;;;9.25;100.00;92042.19;4954780;29;20035;-76
2023/05/11 01:02:39;;;;;;;23.33;12.88;;;;;;;9.25;100.00;92040.34;4936808;28;20134;-76
2023/05/11 01:05:06;;;;;;;23.05;12.90;;;;;;;9.23;100.00;92032.03;4937126;29;20043;-76
2023/05/11 01:07:58;;;;;;;22.00;12.93;;;;;;;9.21;100.00;92034.16;4936955;29;20063;-76
2023/05/11 01:10:36;;;;;;;21.85;12.80;;;;;;;9.19;100.00;92028.44;4952387;29;20090;-76
2023/05/11 01:13:19;;;;;;;19.83;11.52;;;;;;;9.20;100.00;92030.00;4947360;28;20031;-76
2023/05/11 01:15:50;;;;;;;20.38;12.30;;;;;;;9.19;100.00;92033.69;4936861;29;20039;-76
2023/05/11 01:18:33;;;;;;;17.45;11.15;;;;;;;9.17;100.00;92030.56;4936982;29;20027;-76
2023/05/11 01:21:07;;;;;;;20.65;12.05;;;;;;;9.15;100.00;92025.63;4936462;29;20039;-76
2023/05/11 01:24:00;;;;;;;19.73;12.38;;;;;;;9.14;100.00;92018.88;4936685;29;20062;-76
2023/05/11 01:26:51;;;;;;;21.75;11.00;;;;;;;9.16;100.00;92018.56;4947523;29;20141;-76
2023/05/11 01:29:49;;;;;;;22.98;12.35;;;;;;;9.15;100.00;92017.03;4934539;29;20039;-76
2023/05/11 01:32:19;;;;;;;19.17;11.80;;;;;;;9.16;100.00;92015.94;4936247;29;20039;-76
2023/05/11 01:34:47;;;;;;;19.45;11.75;;;;;;;9.16;100.00;92014.13;4953216;28;20511;-76
2023/05/11 01:37:18;;;;;;;19.27;10.68;;;;;;;9.15;100.00;92019.63;4952754;29;20144;-76
2023/05/11 01:39:51;;;;;;;14.40;10.10;;;;;;;9.14;100.00;92012.84;4953381;29;20073;-76
2023/05/11 01:42:21;;;;;;;16.67;11.27;;;;;;;9.13;100.00;92019.16;4954975;28;20038;-75
2023/05/11 01:44:50;;;;;;;17.80;11.68;;;;;;;9.13;100.00;92003.47;4958257;28;20045;-76
2023/05/11 01:47:18;;;;;;;18.60;11.15;;;;;;;9.11;100.00;92000.38;4952999;29;20401;-76
2023/05/11 01:49:44;;;;;;;18.33;10.85;;;;;;;9.09;100.00;92002.50;4919744;29;20051;-76
2023/05/11 01:52:13;;;;;;;18.13;11.43;;;;;;;9.08;100.00;92011.41;4905078;29;20449;-76
2023/05/11 01:54:41;;;;;;;20.20;12.57;;;;;;;9.07;100.00;92009.84;4903531;29;20129;-76
2023/05/11 01:57:08;;;;;;;22.20;12.35;;;;;;;9.05;100.00;92001.53;4933515;29;20030;-76
2023/05/11 01:59:38;;;;;;;21.50;12.55;;;;;;;9.04;100.00;92007.81;4936399;29;20080;-76
2023/05/11 02:02:05;;;;;;;21.77;13.10;;;;;;;9.04;100.00;92005.22;4936398;29;20046;-76
2023/05/11 02:04:31;;;;;;;23.77;13.68;;;;;;;9.04;100.00;92010.44;4935553;29;20035;-76
2023/05/11 02:07:00;;;;;;;20.55;13.55;;;;;;;9.02;100.00;92004.72;4953382;29;20031;-76
2023/05/11 02:09:26;;;;;;;25.05;14.23;;;;;;;9.02;100.00;92002.88;4935116;29;20031;-75
2023/05/11 02:11:55;;;;;;;21.38;13.57;;;;;;;8.98;100.00;91995.91;4936489;29;20159;-75
2023/05/11 02:14:23;;;;;;;24.17;13.95;;;;;;;8.98;100.00;91999.28;4935394;29;20536;-75
2023/05/11 02:16:49;;;;;;;21.40;12.70;;;;;;;8.96;100.00;91991.75;4951709;29;20356;-75
2023/05/11 02:19:17;;;;;;;18.00;12.32;;;;;;;8.99;100.00;91997.47;4935082;29;20114;-75
2023/05/11 02:21:43;;;;;;;19.58;11.93;;;;;;;8.98;100.00;91998.53;4945401;29;20038;-75
2023/05/11 02:24:09;;;;;;;14.48;9.02;;;;;;;8.97;100.00;92002.97;4953038;28;20158;-75
2023/05/11 02:26:35;;;;;;;17.10;8.38;;;;;;;8.95;100.00;91992.81;4940484;29;20055;-76
2023/05/11 02:29:01;;;;;;;19.38;8.77;;;;;;;8.96;100.00;91998.81;4943104;29;20035;-75
2023/05/11 02:31:29;;;;;;;12.43;8.07;;;;;;;8.95;100.00;92002.50;4951717;29;20035;-76
2023/05/11 02:34:19;;;;;;;18.02;8.23;;;;;;;8.86;100.00;91989.31;4949372;28;20027;-76
2023/05/11 02:36:54;;;;;;;12.07;7.82;;;;;;;8.88;100.00;91992.41;4935660;29;20035;-76
2023/05/11 02:39:25;;;;;;;14.07;8.20;;;;;;;8.86;100.00;91989.31;4935830;29;20038;-76
2023/05/11 02:41:56;;;;;;;12.48;7.72;;;;;;;8.86;100.00;91994.53;4919972;29;20122;-76
2023/05/11 02:44:26;;;;;;;10.30;7.03;;;;;;;8.86;100.00;91989.31;4951835;28;20050;-76
2023/05/11 02:46:54;;;;;;;10.80;7.03;;;;;;;8.87;100.00;91990.09;4935593;29;20062;-76
2023/05/11 02:49:26;;;;;;;10.70;7.13;;;;;;;8.86;100.00;91989.31;4935514;29;20035;-75
2023/05/11 02:51:54;;;;;;;10.55;6.57;;;;;;;8.85;100.00;91985.16;4934052;29;20027;-75
2023/05/11 02:54:22;;;;;;;10.68;7.15;;;;;;;8.86;100.00;91981.47;4935632;29;20043;-75
2023/05/11 02:56:51;;;;;;;10.68;5.80;;;;;;;8.86;100.00;91981.47;4944577;29;20099;-75
2023/05/11 02:59:17;;;;;;;6.60;4.60;;;;;;;8.85;100.00;91982.56;4935480;29;20469;-75
2023/05/11 03:01:43;;;;;;;5.00;3.10;;;;;;;8.84;100.00;91978.38;4950124;29;20117;-75
2023/05/11 03:04:10;;;;;;;4.45;2.38;;;;;;;8.84;100.00;91975.78;4943924;29;20038;-75
2023/05/11 03:06:36;;;;;;;3.80;1.92;;;;;;;8.85;100.00;91979.16;4952210;29;20042;-75
2023/05/11 03:09:05;;;;;;;9.88;6.72;;;;;;;8.86;100.00;91978.88;4935414;29;20031;-76
2023/05/11 03:11:34;;;;;;;16.27;10.65;;;;;;;8.95;100.00;91976.38;4934484;29;20039;-75
2023/05/11 03:14:01;;;;;;;20.00;11.40;;;;;;;8.92;100.00;91972.50;4919171;28;20035;-75
2023/05/11 03:16:27;;;;;;;16.88;11.05;;;;;;;8.92;100.00;91969.13;4938037;29;20501;-75
2023/05/11 03:18:55;;;;;;;8.23;4.82;;;;;;;8.88;100.00;91958.47;4947723;29;20027;-76
2023/05/11 03:21:23;;;;;;;6.90;4.15;;;;;;;8.85;100.00;91966.91;4920083;29;20322;-75
2023/05/11 03:23:49;;;;;;;7.47;4.32;;;;;;;8.86;100.00;91963.22;4938412;29;20031;-76
2023/05/11 03:26:17;;;;;;;12.13;8.05;;;;;;;8.85;100.00;91961.69;4939507;29;20039;-76
2023/05/11 03:28:45;;;;;;;15.10;9.55;;;;;;;8.90;100.00;91968.66;4940503;29;20027;-76
2023/05/11 03:31:11;;;;;;;11.88;7.05;;;;;;;8.88;100.00;91966.31;4954312;29;20039;-76
2023/05/11 03:33:36;;;;;;;11.85;5.50;;;;;;;8.79;100.00;91952.38;4939584;29;20396;-76
2023/05/11 03:36:07;;;;;;;7.25;4.68;;;;;;;8.74;100.00;91955.09;4954787;29;20492;-76
2023/05/11 03:38:34;;;;;;;5.32;2.95;;;;;;;8.73;100.00;91966.56;4938726;29;20070;-76
2023/05/11 03:41:00;;;;;;;3.95;2.25;;;;;;;8.68;100.00;91961.44;4937913;29;20858;-76
2023/05/11 03:43:30;;;;;;;3.03;1.95;;;;;;;8.66;100.00;91958.34;4956241;28;20063;-76
2023/05/11 03:45:57;;;;;;;4.10;1.80;;;;;;;8.63;100.00;91956.31;4954563;29;20429;-77
2023/05/11 03:48:24;;;;;;;3.20;1.50;;;;;;;8.64;100.00;91955.25;4938841;29;20071;-76
2023/05/11 03:50:51;;;;;;;3.50;1.50;;;;;;;8.63;100.00;91954.47;4937624;29;20035;-76
2023/05/11 03:53:17;;;;;;;3.13;1.90;;;;;;;8.64;100.00;91947.41;4955021;28;20043;-76
2023/05/11 03:55:42;;;;;;;2.53;1.52;;;;;;;8.69;100.00;91955.94;4955985;29;20257;-77
2023/05/11 03:58:09;;;;;;;2.17;1.48;;;;;;;8.71;100.00;91948.59;4954267;29;20039;-77
2023/05/11 04:00:41;;;;;;;2.70;1.33;;;;;;;8.74;100.00;91957.69;4954125;29;20074;-77
2023/05/11 04:03:08;;;;;;;2.55;1.55;;;;;;;8.77;100.00;91949.28;4945844;28;20520;-77
2023/05/11 04:05:34;;;;;;;2.97;1.50;;;;;;;8.81;100.00;91950.25;4923657;29;20027;-76
2023/05/11 04:08:04;;;;;;;2.90;1.80;;;;;;;8.80;100.00;91947.94;4954585;29;20043;-76
2023/05/11 04:10:30;;;;;;;3.28;2.13;;;;;;;8.80;100.00;91946.09;4922461;29;20043;-77
2023/05/11 04:12:56;;;;;;;4.80;2.15;;;;;;;8.78;100.00;91943.03;4952947;28;20028;-76
2023/05/11 04:15:21;;;;;;;3.35;1.85;;;;;;;8.78;100.00;91948.25;4953692;28;20086;-76
2023/05/11 04:17:47;;;;;;;1.92;1.30;;;;;;;8.78;100.00;91945.63;4954613;29;20058;-76
2023/05/11 04:20:12;;;;;;;4.78;1.30;;;;;;;8.81;100.00;91950.25;4954028;29;20043;-76
2023/05/11 04:22:38;;;;;;;1.33;1.10;;;;;;;8.86;100.00;91950.16;4954813;28;20034;-76
2023/05/11 04:25:04;;;;;;;3.95;1.10;;;;;;;8.91;100.00;91950.06;4953895;29;20499;-76
2023/05/11 04:27:33;;;;;;;1.65;1.20;;;;;;;8.96;100.00;91952.59;4920665;29;20043;-76
2023/05/11 04:29:59;;;;;;;1.45;1.20;;;;;;;9.01;100.00;91953.59;4937966;29;20035;-75
2023/05/11 04:32:28;;;;;;;1.50;1.00;;;;;;;9.08;100.00;91943.53;4935397;28;20039;-76
2023/05/11 04:34:54;;;;;;;1.52;1.10;;;;;;;9.14;100.00;91942.34;4950352;29;20414;-76
2023/05/11 04:37:22;;;;;;;1.75;1.10;;;;;;;9.17;100.00;91941.78;4922025;29;20058;-76
2023/05/11 04:39:49;;;;;;;1.40;1.20;;;;;;;9.22;100.00;91939.06;4954092;29;20516;-76
2023/05/11 04:42:15;;;;;;;1.05;0.95;;;;;;;9.27;100.00;91940.81;4953040;29;20441;-76
2023/05/11 04:44:42;;;;;;;2.28;1.10;;;;;;;9.30;100.00;91933.19;4951478;29;20137;-76
2023/05/11 04:47:08;;;;;;;1.67;1.10;;;;;;;9.36;100.00;91936.44;4949855;29;20565;-76
2023/05/11 04:49:33;;;;;;;0.95;0.95;;;;;;;9.43;100.00;91939.44;4953183;29;20043;-76
2023/05/11 04:51:59;;;;;;;1.15;1.05;;;;;;;9.46;100.00;91928.44;4937817;29;20039;-76
2023/05/11 04:54:25;;;;;;;1.75;0.80;;;;;;;9.51;100.00;91941.38;4937214;29;20046;-76
2023/05/11 04:56:51;;;;;;;3.35;0.80;;;;;;;9.57;100.00;91939.44;4952478;29;20039;-76
2023/05/11 04:59:17;;;;;;;4.00;2.55;;;;;;;9.59;100.00;91937.28;4933818;29;20050;-76
2023/05/11 05:01:43;;;;;;;7.10;2.90;;;;;;;9.65;100.00;91948.44;4934385;29;20155;-77
2023/05/11 05:04:08;;;;;;;6.63;3.60;;;;;;;9.59;100.00;91942.53;4920428;29;20482;-78
2023/05/11 05:06:34;;;;;;;4.35;2.63;;;;;;;9.52;100.00;91942.16;4935266;29;20036;-79
2023/05/11 05:09:00;;;;;;;3.80;2.10;;;;;;;9.51;100.00;91940.63;4955010;29;20038;-77
2023/05/11 05:11:25;;;;;;;2.55;1.20;;;;;;;9.66;100.00;91936.91;4947053;29;20042;-77
2023/05/11 05:13:52;;;;;;;1.48;1.10;;;;;;;9.63;100.00;91938.25;4950522;28;20035;-78
2023/05/11 05:16:17;;;;;;;2.03;1.25;;;;;;;9.64;100.00;91939.81;4955101;29;20038;-79
2023/05/11 05:18:43;;;;;;;2.53;1.13;;;;;;;9.59;100.00;91942.53;4936947;29;20039;-78
2023/05/11 05:21:09;;;;;;;3.30;1.30;;;;;;;9.56;100.00;91948.34;4952586;29;20103;-78
2023/05/11 05:23:34;;;;;;;3.08;1.17;;;;;;;9.53;100.00;91943.72;4924009;29;20043;-78
2023/05/11 05:26:00;;;;;;;2.00;1.20;;;;;;;9.57;100.00;91948.06;4956830;29;20028;-80
2023/05/11 05:28:26;;;;;;;1.65;1.10;;;;;;;9.60;100.00;91938.84;4962010;28;20132;-78
2023/05/11 05:30:51;;;;;;;1.90;0.90;;;;;;;9.66;100.00;91940.31;4936735;29;20031;-78
2023/05/11 05:33:18;;;;;;;1.90;1.17;;;;;;;9.73;100.00;91940.69;4956611;28;20517;-77
2023/05/11 05:35:45;;;;;;;0.80;0.80;;;;;;;9.83;100.00;91944.13;4926271;29;20023;-78
2023/05/11 05:38:11;;;;;;;1.20;0.93;;;;;;;9.91;100.00;91948.69;4940511;29;20047;-78
2023/05/11 05:40:38;;;;;;;3.13;1.30;;;;;;;9.97;100.00;91943.06;4953922;28;20058;-77
2023/05/11 05:43:05;;;;;;;4.85;1.20;;;;;;;10.02;100.00;91944.78;4956487;28;20039;-78
2023/05/11 05:45:31;;;;;;;1.15;0.98;;;;;;;10.06;100.00;91940.47;4956308;29;20042;-78
2023/05/11 05:47:59;;;;;;;1.02;0.90;;;;;;;10.11;100.00;91931.75;4957175;28;20039;-77
2023/05/11 05:50:26;;;;;;;1.02;0.90;;;;;;;10.20;100.00;91943.06;4938789;28;20070;-78
2023/05/11 05:52:52;;;;;;;0.60;0.60;;;;;;;10.30;98.63;91934.25;4957336;28;20126;-78
2023/05/11 05:55:21;;;;;;;0.80;0.80;;;;;;;10.45;96.23;91939.13;4940228;29;20373;-77
2023/05/11 05:57:49;;;;;;;2.40;1.40;;;;;;;10.54;100.00;91944.41;4941185;29;20039;-76
2023/05/11 06:00:15;;;;;;;4.18;1.60;;;;;;;10.53;100.00;91943.63;4939878;29;20039;-78
2023/05/11 06:02:40;;;;;;;2.65;1.50;;;;;;;10.53;100.00;91935.78;4940137;28;20107;-78
2023/05/11 06:05:09;;;;;;;2.45;1.10;;;;;;;10.67;100.00;91940.94;4934973;29;20043;-77
2023/05/11 06:07:35;;;;;;;1.55;1.10;;;;;;;10.62;100.00;91947.06;4954524;29;20146;-78
2023/05/11 06:10:01;;;;;;;1.83;1.10;;;;;;;10.65;93.04;91932.63;4952487;29;20476;-78
2023/05/11 06:12:28;;;;;;;1.00;0.90;;;;;;;10.68;98.11;91934.63;4954247;28;20046;-78
2023/05/11 06:14:55;;;;;;;2.08;1.30;;;;;;;10.74;100.00;91940.50;4953033;28;20050;-77
2023/05/11 06:17:21;;;;;;;2.83;1.35;;;;;;;10.87;100.00;91923.94;4943737;29;20031;-78
2023/05/11 06:19:48;;;;;;;1.75;1.10;;;;;;;10.87;100.00;91928.41;4945720;28;20045;-78
2023/05/11 06:22:15;;;;;;;2.42;1.30;;;;;;;10.91;100.00;91924.91;4938277;28;20092;-77
2023/05/11 06:24:41;;;;;;;2.97;1.63;;;;;;;10.96;100.00;91921.38;4947686;28;20043;-77
2023/05/11 06:27:07;;;;;;;3.45;1.73;;;;;;;10.98;100.00;91922.59;4938790;29;20041;-77
2023/05/11 06:29:33;;;;;;;1.10;1.00;;;;;;;10.99;94.80;91926.03;4937760;29;20042;-77
2023/05/11 06:32:01;;;;;;;1.33;1.00;;;;;;;11.04;97.77;91924.03;4935640;29;20115;-77
2023/05/11 06:34:27;;;;;;;1.88;1.08;;;;;;;11.16;99.75;91927.94;4938185;29;20023;-77
2023/05/11 06:36:53;;;;;;;3.17;1.50;;;;;;;11.26;100.00;91925.03;4953473;29;20031;-77
2023/05/11 06:39:20;;;;;;;3.42;1.88;;;;;;;11.33;100.00;91924.59;4953948;29;20047;-77
2023/05/11 06:41:45;;;;;;;3.63;1.65;;;;;;;11.32;100.00;91921.19;4937444;29;20058;-77
2023/05/11 06:44:11;;;;;;;6.95;2.00;;;;;;;11.52;100.00;91919.09;4954570;28;20035;-78
2023/05/11 06:46:37;;;;;;;2.55;1.67;;;;;;;11.51;100.00;91914.94;4953575;29;20035;-78
2023/05/11 06:49:03;;;;;;;4.55;1.55;;;;;;;11.56;100.00;91918.19;4952858;28;20039;-77
2023/05/11 06:51:29;;;;;;;4.90;1.52;;;;;;;11.62;100.00;91916.19;4936443;29;20435;-78
2023/05/11 06:53:55;;;;;;;4.68;1.30;;;;;;;11.77;100.00;91907.09;4954591;28;20092;-78
2023/05/11 06:56:21;;;;;;;2.60;1.25;;;;;;;12.05;100.00;91908.41;4937391;29;20189;-78
2023/05/11 06:58:46;;;;;;;2.35;1.27;;;;;;;12.06;90.03;91911.78;4953182;29;20414;-77
2023/05/11 07:01:12;;;;;;;1.00;0.90;;;;;;;12.33;89.10;91910.69;4952896;29;20492;-78
2023/05/11 07:03:38;;;;;;;5.97;1.60;;;;;;;12.47;100.00;91900.81;4937737;29;20114;-78
2023/05/11 07:06:03;;;;;;;5.43;2.10;;;;;;;12.73;100.00;91907.09;4952950;29;20413;-78
2023/05/11 07:08:29;;;;;;;4.18;2.40;;;;;;;12.60;100.00;91903.56;4952684;29;20047;-78
2023/05/11 07:10:55;;;;;;;4.32;2.58;;;;;;;12.64;100.00;91907.13;4954663;29;20043;-78
2023/05/11 07:13:20;;;;;;;7.35;4.22;;;;;;;12.64;100.00;91900.00;4954258;28;20456;-77
2023/05/11 07:15:46;;;;;;;10.85;6.32;;;;;;;12.59;100.00;91904.66;4953357;29;20477;-78
2023/05/11 07:18:11;;;;;;;10.95;6.63;;;;;;;12.45;100.00;91907.44;4953335;29;20035;-77
2023/05/11 07:20:38;;;;;;;9.77;5.93;;;;;;;12.36;100.00;91909.31;4952994;29;20066;-78
2023/05/11 07:23:04;;;;;;;8.55;4.78;;;;;;;12.49;100.00;91918.88;4952957;28;20572;-77
2023/05/11 07:25:30;;;;;;;7.05;4.28;;;;;;;12.40;100.00;91910.22;4954307;29;20045;-78
2023/05/11 07:27:55;;;;;;;8.65;5.28;;;;;;;12.60;100.00;91908.81;4954522;29;20023;-78
2023/05/11 07:30:21;;;;;;;11.35;4.85;;;;;;;12.56;100.00;91913.91;4954471;29;20142;-78
2023/05/11 07:32:47;;;;;;;9.68;4.60;;;;;;;12.67;100.00;91915.13;4952809;28;20039;-77
2023/05/11 07:35:14;;;;;;;8.13;4.78;;;;;;;12.80;100.00;91912.63;4954109;29;20090;-78
2023/05/11 07:37:40;;;;;;;10.00;6.68;;;;;;;12.73;100.00;91904.47;4952788;29;20036;-77
2023/05/11 07:40:06;;;;;;;10.38;7.45;;;;;;;12.42;100.00;91908.06;4937251;29;20409;-78
2023/05/11 07:42:32;;;;;;;12.00;7.28;;;;;;;12.31;100.00;91906.84;4953006;28;20505;-78
2023/05/11 07:44:57;;;;;;;10.70;6.88;;;;;;;12.35;100.00;91907.78;4954115;29;20035;-78
2023/05/11 07:47:24;;;;;;;8.35;5.93;;;;;;;12.46;100.00;91915.00;4952401;29;20098;-78
2023/05/11 07:49:49;;;;;;;10.15;6.20;;;;;;;12.56;100.00;91907.88;4953368;29;20055;-78
2023/05/11 07:52:16;;;;;;;8.55;4.85;;;;;;;12.92;100.00;91915.38;4936661;29;20138;-78
2023/05/11 07:54:42;;;;;;;10.50;6.78;;;;;;;13.10;100.00;91906.38;4954307;28;20043;-78
2023/05/11 07:57:10;;;;;;;9.77;5.55;;;;;;;13.05;100.00;91911.00;4936636;29;20393;-78
2023/05/11 07:59:36;;;;;;;10.63;6.10;;;;;;;12.99;100.00;91913.06;4952785;29;20050;-78
2023/05/11 08:02:03;;;;;;;8.35;5.38;;;;;;;12.99;100.00;91904.38;4938529;29;20031;-78
2023/05/11 08:04:29;;;;;;;9.10;5.88;;;;;;;13.06;100.00;91913.34;4956575;28;20469;-77
2023/05/11 08:06:55;;;;;;;10.75;5.50;;;;;;;13.13;100.00;91910.97;4956001;29;20039;-78
2023/05/11 08:09:21;;;;;;;7.65;4.55;;;;;;;13.41;100.00;91902.69;4957681;29;20104;-78
2023/05/11 08:11:48;;;;;;;8.00;4.20;;;;;;;13.29;100.00;91913.13;4940125;29;20050;-77
2023/05/11 08:14:14;;;;;;;10.48;6.82;;;;;;;13.26;100.00;91908.44;4939646;29;20050;-78
2023/05/11 08:16:40;;;;;;;11.85;8.05;;;;;;;13.23;100.00;91904.59;4956926;29;20030;-78
2023/05/11 08:19:06;;;;;;;9.80;7.63;;;;;;;13.15;100.00;91915.13;4956605;29;20043;-78
2023/05/11 08:21:31;;;;;;;9.82;7.20;;;;;;;13.19;100.00;91908.19;4940208;29;20031;-77
2023/05/11 08:23:57;;;;;;;9.73;6.25;;;;;;;13.14;100.00;91903.88;4957014;28;20039;-78
2023/05/11 08:26:24;;;;;;;11.13;4.38;;;;;;;13.31;100.00;91906.47;4940225;29;20130;-78
2023/05/11 08:28:51;;;;;;;6.38;3.75;;;;;;;13.50;100.00;91908.66;4957104;29;20097;-78
2023/05/11 08:31:17;;;;;;;8.68;5.75;;;;;;;13.48;100.00;91905.59;4956618;29;20216;-78
2023/05/11 08:33:43;;;;;;;9.60;6.53;;;;;;;13.37;100.00;91907.03;4939493;29;20118;-78
2023/05/11 08:36:10;;;;;;;9.60;5.90;;;;;;;13.54;100.00;91908.81;4939877;29;20035;-77
2023/05/11 08:38:35;;;;;;;9.65;6.03;;;;;;;13.98;100.00;91909.31;4939249;29;20137;-78
2023/05/11 08:41:02;;;;;;;8.43;5.53;;;;;;;14.59;100.00;91908.88;4956611;29;20118;-78
2023/05/11 08:43:29;;;;;;;7.25;4.38;;;;;;;14.54;100.00;91907.19;4940097;29;20324;-78
2023/05/11 08:45:59;;;;;;;8.20;5.88;;;;;;;14.38;100.00;91906.22;4957170;29;20035;-77
2023/05/11 08:48:25;;;;;;;8.88;6.32;;;;;;;14.15;100.00;91903.16;4956154;29;20035;-77
2023/05/11 08:50:51;;;;;;;12.95;7.30;;;;;;;14.19;100.00;91904.06;4955251;29;20396;-78
2023/05/11 08:53:17;;;;;;;13.50;8.88;;;;;;;14.05;100.00;91911.44;4939135;29;20048;-78
2023/05/11 08:55:42;;;;;;;13.05;8.93;;;;;;;14.11;100.00;91904.88;4956490;29;20095;-78
2023/05/11 08:58:09;;;;;;;11.52;8.30;;;;;;;14.15;100.00;91905.78;4955256;29;20054;-77
2023/05/11 09:00:35;;;;;;;18.35;7.60;;;;;;;14.41;100.00;91896.91;4948609;29;20485;-78
2023/05/11 09:03:02;;;;;;;11.50;8.50;;;;;;;14.62;100.00;91897.66;4939061;29;20039;-77
2023/05/11 09:05:29;;;;;;;8.68;6.20;;;;;;;14.49;100.00;91898.69;4939698;29;20035;-78
2023/05/11 09:08:00;;;;;;;10.55;7.28;;;;;;;14.47;100.00;91901.63;4955769;29;20067;-78
2023/05/11 09:10:27;;;;;;;11.18;7.95;;;;;;;14.34;100.00;91908.75;4956349;29;20039;-77
2023/05/11 09:12:52;;;;;;;14.27;8.50;;;;;;;14.24;100.00;91897.81;4956034;28;20034;-78
2023/05/11 09:15:18;;;;;;;11.07;7.47;;;;;;;14.26;100.00;91899.03;4956122;29;20118;-77
2023/05/11 09:17:43;;;;;;;11.63;7.80;;;;;;;14.33;100.00;91894.03;4939261;29;20031;-78
2023/05/11 09:20:10;;;;;;;9.88;4.55;;;;;;;14.41;100.00;91902.94;4938975;29;20050;-78
2023/05/11 09:22:45;;;;;;;9.43;6.97;;;;;;;14.16;100.00;91902.84;4938751;28;20046;-78
2023/05/11 09:25:13;;;;;;;9.45;7.07;;;;;;;14.16;100.00;91902.84;4956797;29;20074;-78
2023/05/11 09:27:46;;;;;;;9.75;6.88;;;;;;;14.35;100.00;91897.09;4938990;29;20401;-78
2023/05/11 09:30:14;;;;;;;8.57;5.55;;;;;;;14.33;100.00;91901.91;4956664;29;20027;-78
2023/05/11 09:32:50;;;;;;;10.23;7.15;;;;;;;14.54;100.00;91898.47;4956125;28;20034;-78
2023/05/11 09:35:20;;;;;;;10.32;6.03;;;;;;;14.79;100.00;91894.06;4956579;29;20106;-78
2023/05/11 09:38:08;;;;;;;9.93;6.78;;;;;;;14.51;100.00;91894.63;4948799;29;20043;-78
2023/05/11 09:40:36;;;;;;;11.00;6.70;;;;;;;14.43;100.00;91895.47;4954516;29;20043;-78
2023/05/11 09:43:14;;;;;;;9.82;5.38;;;;;;;14.52;100.00;91887.50;4956341;28;20031;-78
2023/05/11 09:45:41;;;;;;;10.77;6.50;;;;;;;14.62;100.00;91895.03;4955476;29;20031;-78
2023/05/11 09:48:34;;;;;;;10.45;6.93;;;;;;;14.41;100.00;91896.91;4939344;29;20038;-78
2023/05/11 09:50:59;;;;;;;;;;;;;;;14.38;100.00;91899.06;4955941;29;20038;-78
2023/05/11 09:53:37;;;;;;;12.05;7.55;;;;;;;14.34;100.00;91895.56;4954733;28;20288;-77
2023/05/11 09:56:03;;;;;;;11.55;7.55;;;;;;;14.34;100.00;91897.41;4953209;29;20481;-77
2023/05/11 09:58:56;;;;;;;11.27;7.30;;;;;;;14.59;100.00;91882.53;4953644;29;20039;-77
2023/05/11 10:01:33;;;;;;;11.35;7.22;;;;;;;14.51;100.00;91893.88;4934578;29;20501;-77
2023/05/11 10:04:00;;;;;;;9.13;6.07;;;;;;;14.62;100.00;91887.13;4953931;28;20402;-76
2023/05/11 10:06:27;;;;;;;9.07;3.22;;;;;;;14.67;100.00;91894.06;4936275;29;20039;-77
2023/05/11 10:08:53;;;;;;;9.05;5.25;;;;;;;14.74;100.00;91889.78;4956043;29;20067;-77
2023/05/11 10:11:22;;;;;;;10.25;6.97;;;;;;;14.86;100.00;91891.72;4952061;29;20039;-77
2023/05/11 10:13:49;;;;;;;8.80;6.20;;;;;;;15.05;100.00;91879.88;4936056;29;20057;-77
2023/05/11 10:16:15;;;;;;;8.70;5.82;;;;;;;15.03;100.00;91882.06;4952313;29;20035;-77
2023/05/11 10:18:42;;;;;;;6.95;2.30;;;;;;;15.38;100.00;91885.06;4954294;29;20058;-77
2023/05/11 10:21:10;;;;;;;4.57;2.10;;;;;;;15.61;100.00;91877.47;4954557;29;20027;-77
2023/05/11 10:23:36;;;;;;;6.15;2.42;;;;;;;15.99;100.00;91879.72;4954662;28;20038;-77
2023/05/11 10:26:03;;;;;;;4.57;2.60;;;;;;;16.13;100.00;91886.53;4938006;29;20122;-77
2023/05/11 10:28:29;;;;;;;3.05;1.70;;;;;;;16.36;100.00;91878.84;4954697;29;20460;-77
2023/05/11 10:30:55;;;;;;;3.00;1.75;;;;;;;16.57;91.46;91878.63;4955016;29;20035;-77
2023/05/11 10:33:22;;;;;;;4.13;2.03;;;;;;;16.57;100.00;91876.00;4955097;28;20050;-77
2023/05/11 10:35:48;;;;;;;2.72;1.80;;;;;;;16.64;100.00;91881.50;4937693;29;20042;-77
2023/05/11 10:38:15;;;;;;;5.53;2.20;;;;;;;16.61;100.00;91876.88;4937883;29;20046;-77
2023/05/11 10:40:44;;;;;;;4.13;1.95;;;;;;;16.78;100.00;91871.28;4922175;29;20126;-79
2023/05/11 10:43:54;;;;;;;3.33;1.60;;;;;;;16.96;99.24;91874.41;4956224;28;20039;-77
2023/05/11 10:47:05;;;;;;;3.80;1.80;;;;;;;17.55;90.84;91875.41;4948740;29;20039;-77
2023/05/11 10:50:06;;;;;;;2.95;1.70;;;;;;;17.47;96.19;91865.75;4953165;29;20047;-77
2023/05/11 10:52:48;;;;;;;3.10;1.88;;;;;;;17.18;93.92;91867.78;4954258;28;20114;-78
2023/05/11 10:55:18;;;;;;;;;;;;;;;17.40;90.24;91871.66;4954305;29;20039;-78
2023/05/11 10:58:04;;;;;;;4.78;1.63;;;;;;;17.40;77.58;91866.38;4937685;29;20017;-77
2023/05/11 11:00:34;;;;;;;3.60;1.88;;;;;;;16.87;84.56;91870.41;4954794;29;20126;-77
2023/05/11 11:03:10;;;;;;;3.53;1.92;;;;;;;16.82;82.52;91868.78;4955092;28;20086;-77
2023/05/11 11:05:38;;;;;;;9.98;5.60;;;;;;;16.49;99.76;91856.56;4954973;29;20043;-77
2023/05/11 11:08:07;;;;;;;7.60;5.75;;;;;;;15.71;100.00;91866.47;4938437;29;20058;-77
2023/05/11 11:10:34;;;;;;;7.55;4.68;;;;;;;15.82;100.00;91861.50;4955092;29;20051;-78
2023/05/11 11:13:11;;;;;;;3.83;2.20;;;;;;;15.68;93.24;91855.78;4954663;28;20034;-78
2023/05/11 11:15:52;;;;;;;6.00;2.00;;;;;;;15.97;85.68;91860.81;4953627;29;20071;-76
2023/05/11 11:18:38;;;;;;;9.38;4.95;;;;;;;16.17;100.00;91853.06;4951721;29;20043;-76
2023/05/11 11:21:04;;;;;;;7.47;4.45;;;;;;;16.25;98.15;91852.13;4937060;29;20043;-77
2023/05/11 11:23:48;;;;;;;6.95;4.47;;;;;;;16.17;100.00;91851.19;4955001;28;20045;-77
2023/05/11 11:26:47;;;;;;;7.18;4.00;;;;;;;16.85;97.34;91846.94;4954522;29;20054;-76
2023/05/11 11:29:14;;;;;;;8.77;5.10;;;;;;;16.52;100.00;91845.31;4954846;29;20183;-77
2023/05/11 11:31:40;;;;;;;10.43;4.78;;;;;;;16.37;100.00;91846.81;4954904;29;20042;-77